<?xml version="1.0" encoding="UTF-8" standalone="no" ?>
<gpx xmlns="http://www.topografix.com/GPX/1/1" xmlns:xsi="http://www.w3.org/2001/XMLSchema-instance" xsi:schemaLocation="http://www.topografix.com/GPX/1/1 http://www.topografix.com/GPX/1/1/gpx.xsd" version="1.1" creator="VisuGPX - https://www.visugpx.com">
  <metadata>
    <name>circuit de Septenne</name>
    <desc><![CDATA[Rando au départ de Péone pour un circuit sympa sur les hauteurs.]]></desc>
  </metadata>
  <trk>
    <name><![CDATA[2018-07-02 14:29:36]]></name>
    <trkseg>
      <trkpt lat="44.1172" lon="6.90723">
        <ele>1175.83</ele>
        <time>2018-07-02T06:27:23Z</time>
      </trkpt>
      <trkpt lat="44.11739" lon="6.90778">
        <ele>1177.75</ele>
        <time>2018-07-02T06:36:23Z</time>
      </trkpt>
      <trkpt lat="44.1175" lon="6.90791">
        <ele>1179.19</ele>
        <time>2018-07-02T06:36:50Z</time>
      </trkpt>
      <trkpt lat="44.11762" lon="6.90781">
        <ele>1180.64</ele>
        <time>2018-07-02T06:37:03Z</time>
      </trkpt>
      <trkpt lat="44.11773" lon="6.90784">
        <ele>1182.08</ele>
        <time>2018-07-02T06:37:17Z</time>
      </trkpt>
      <trkpt lat="44.11784" lon="6.90786">
        <ele>1183.04</ele>
        <time>2018-07-02T06:37:29Z</time>
      </trkpt>
      <trkpt lat="44.11794" lon="6.90784">
        <ele>1184.48</ele>
        <time>2018-07-02T06:37:41Z</time>
      </trkpt>
      <trkpt lat="44.11801" lon="6.90778">
        <ele>1185.44</ele>
        <time>2018-07-02T06:38:12Z</time>
      </trkpt>
      <trkpt lat="44.1181" lon="6.90769">
        <ele>1186.4</ele>
        <time>2018-07-02T06:38:24Z</time>
      </trkpt>
      <trkpt lat="44.1182" lon="6.9076">
        <ele>1187.37</ele>
        <time>2018-07-02T06:38:59Z</time>
      </trkpt>
      <trkpt lat="44.11829" lon="6.90752">
        <ele>1188.33</ele>
        <time>2018-07-02T06:39:07Z</time>
      </trkpt>
      <trkpt lat="44.11838" lon="6.90745">
        <ele>1189.29</ele>
        <time>2018-07-02T06:39:15Z</time>
      </trkpt>
      <trkpt lat="44.11847" lon="6.90739">
        <ele>1190.25</ele>
        <time>2018-07-02T06:39:24Z</time>
      </trkpt>
      <trkpt lat="44.11856" lon="6.90729">
        <ele>1191.21</ele>
        <time>2018-07-02T06:39:35Z</time>
      </trkpt>
      <trkpt lat="44.11865" lon="6.90716">
        <ele>1191.69</ele>
        <time>2018-07-02T06:39:47Z</time>
      </trkpt>
      <trkpt lat="44.11874" lon="6.90707">
        <ele>1192.65</ele>
        <time>2018-07-02T06:39:59Z</time>
      </trkpt>
      <trkpt lat="44.11884" lon="6.90702">
        <ele>1193.61</ele>
        <time>2018-07-02T06:40:09Z</time>
      </trkpt>
      <trkpt lat="44.11894" lon="6.90696">
        <ele>1195.54</ele>
        <time>2018-07-02T06:40:21Z</time>
      </trkpt>
      <trkpt lat="44.11902" lon="6.90687">
        <ele>1196.02</ele>
        <time>2018-07-02T06:40:33Z</time>
      </trkpt>
      <trkpt lat="44.11914" lon="6.90679">
        <ele>1196.98</ele>
        <time>2018-07-02T06:40:45Z</time>
      </trkpt>
      <trkpt lat="44.11923" lon="6.90671">
        <ele>1197.94</ele>
        <time>2018-07-02T06:40:57Z</time>
      </trkpt>
      <trkpt lat="44.11932" lon="6.9066">
        <ele>1198.9</ele>
        <time>2018-07-02T06:41:08Z</time>
      </trkpt>
      <trkpt lat="44.11939" lon="6.90652">
        <ele>1199.38</ele>
        <time>2018-07-02T06:41:18Z</time>
      </trkpt>
      <trkpt lat="44.11947" lon="6.90644">
        <ele>1200.82</ele>
        <time>2018-07-02T06:41:31Z</time>
      </trkpt>
      <trkpt lat="44.11957" lon="6.90646">
        <ele>1201.79</ele>
        <time>2018-07-02T06:41:52Z</time>
      </trkpt>
      <trkpt lat="44.11968" lon="6.90646">
        <ele>1202.75</ele>
        <time>2018-07-02T06:42:04Z</time>
      </trkpt>
      <trkpt lat="44.1198" lon="6.90651">
        <ele>1204.19</ele>
        <time>2018-07-02T06:42:25Z</time>
      </trkpt>
      <trkpt lat="44.11992" lon="6.90653">
        <ele>1205.63</ele>
        <time>2018-07-02T06:42:38Z</time>
      </trkpt>
      <trkpt lat="44.12001" lon="6.90659">
        <ele>1207.07</ele>
        <time>2018-07-02T06:42:51Z</time>
      </trkpt>
      <trkpt lat="44.12011" lon="6.9066">
        <ele>1208.03</ele>
        <time>2018-07-02T06:43:03Z</time>
      </trkpt>
      <trkpt lat="44.12022" lon="6.90661">
        <ele>1209.96</ele>
        <time>2018-07-02T06:43:16Z</time>
      </trkpt>
      <trkpt lat="44.12011" lon="6.90724">
        <ele>1218.13</ele>
        <time>2018-07-02T06:44:54Z</time>
      </trkpt>
      <trkpt lat="44.11997" lon="6.90729">
        <ele>1220.05</ele>
        <time>2018-07-02T06:45:10Z</time>
      </trkpt>
      <trkpt lat="44.12" lon="6.90736">
        <ele>1221.49</ele>
        <time>2018-07-02T06:45:22Z</time>
      </trkpt>
      <trkpt lat="44.12009" lon="6.90733">
        <ele>1222.45</ele>
        <time>2018-07-02T06:45:34Z</time>
      </trkpt>
      <trkpt lat="44.12019" lon="6.9073">
        <ele>1223.9</ele>
        <time>2018-07-02T06:45:47Z</time>
      </trkpt>
      <trkpt lat="44.12016" lon="6.90738">
        <ele>1226.3</ele>
        <time>2018-07-02T06:46:00Z</time>
      </trkpt>
      <trkpt lat="44.12007" lon="6.90743">
        <ele>1227.74</ele>
        <time>2018-07-02T06:46:13Z</time>
      </trkpt>
      <trkpt lat="44.11993" lon="6.90743">
        <ele>1229.18</ele>
        <time>2018-07-02T06:46:28Z</time>
      </trkpt>
      <trkpt lat="44.11982" lon="6.90739">
        <ele>1230.62</ele>
        <time>2018-07-02T06:46:42Z</time>
      </trkpt>
      <trkpt lat="44.1197" lon="6.9074">
        <ele>1232.07</ele>
        <time>2018-07-02T06:46:55Z</time>
      </trkpt>
      <trkpt lat="44.11971" lon="6.90753">
        <ele>1233.03</ele>
        <time>2018-07-02T06:47:07Z</time>
      </trkpt>
      <trkpt lat="44.12005" lon="6.90763">
        <ele>1237.35</ele>
        <time>2018-07-02T06:47:48Z</time>
      </trkpt>
      <trkpt lat="44.12019" lon="6.90763">
        <ele>1238.32</ele>
        <time>2018-07-02T06:48:04Z</time>
      </trkpt>
      <trkpt lat="44.12036" lon="6.90769">
        <ele>1242.16</ele>
        <time>2018-07-02T06:48:33Z</time>
      </trkpt>
      <trkpt lat="44.12025" lon="6.90774">
        <ele>1243.12</ele>
        <time>2018-07-02T06:48:46Z</time>
      </trkpt>
      <trkpt lat="44.12003" lon="6.90783">
        <ele>1246.97</ele>
        <time>2018-07-02T06:49:16Z</time>
      </trkpt>
      <trkpt lat="44.11989" lon="6.90784">
        <ele>1248.89</ele>
        <time>2018-07-02T06:49:43Z</time>
      </trkpt>
      <trkpt lat="44.1199" lon="6.90796">
        <ele>1250.33</ele>
        <time>2018-07-02T06:50:00Z</time>
      </trkpt>
      <trkpt lat="44.12014" lon="6.90804">
        <ele>1253.22</ele>
        <time>2018-07-02T06:50:29Z</time>
      </trkpt>
      <trkpt lat="44.12048" lon="6.90799">
        <ele>1258.02</ele>
        <time>2018-07-02T06:51:09Z</time>
      </trkpt>
      <trkpt lat="44.12057" lon="6.90791">
        <ele>1259.46</ele>
        <time>2018-07-02T06:51:21Z</time>
      </trkpt>
      <trkpt lat="44.12067" lon="6.90782">
        <ele>1260.91</ele>
        <time>2018-07-02T06:51:34Z</time>
      </trkpt>
      <trkpt lat="44.12075" lon="6.9078">
        <ele>1262.35</ele>
        <time>2018-07-02T06:51:49Z</time>
      </trkpt>
      <trkpt lat="44.12104" lon="6.90826">
        <ele>1276.77</ele>
        <time>2018-07-02T06:53:46Z</time>
      </trkpt>
      <trkpt lat="44.12071" lon="6.90858">
        <ele>1282.06</ele>
        <time>2018-07-02T06:54:43Z</time>
      </trkpt>
      <trkpt lat="44.12055" lon="6.90854">
        <ele>1283.5</ele>
        <time>2018-07-02T06:54:57Z</time>
      </trkpt>
      <trkpt lat="44.12041" lon="6.90854">
        <ele>1284.94</ele>
        <time>2018-07-02T06:55:16Z</time>
      </trkpt>
      <trkpt lat="44.12029" lon="6.9086">
        <ele>1285.9</ele>
        <time>2018-07-02T06:55:30Z</time>
      </trkpt>
      <trkpt lat="44.12018" lon="6.90873">
        <ele>1287.82</ele>
        <time>2018-07-02T06:55:58Z</time>
      </trkpt>
      <trkpt lat="44.12005" lon="6.9088">
        <ele>1289.27</ele>
        <time>2018-07-02T06:56:17Z</time>
      </trkpt>
      <trkpt lat="44.12034" lon="6.90902">
        <ele>1298.4</ele>
        <time>2018-07-02T06:58:02Z</time>
      </trkpt>
      <trkpt lat="44.12031" lon="6.90919">
        <ele>1308.97</ele>
        <time>2018-07-02T06:59:41Z</time>
      </trkpt>
      <trkpt lat="44.12061" lon="6.90953">
        <ele>1324.35</ele>
        <time>2018-07-02T07:04:24Z</time>
      </trkpt>
      <trkpt lat="44.12072" lon="6.90953">
        <ele>1326.28</ele>
        <time>2018-07-02T07:04:38Z</time>
      </trkpt>
      <trkpt lat="44.12089" lon="6.9095">
        <ele>1328.2</ele>
        <time>2018-07-02T07:05:01Z</time>
      </trkpt>
      <trkpt lat="44.12104" lon="6.90947">
        <ele>1330.6</ele>
        <time>2018-07-02T07:05:18Z</time>
      </trkpt>
      <trkpt lat="44.12116" lon="6.90945">
        <ele>1332.52</ele>
        <time>2018-07-02T07:05:31Z</time>
      </trkpt>
      <trkpt lat="44.12127" lon="6.90946">
        <ele>1333.49</ele>
        <time>2018-07-02T07:05:42Z</time>
      </trkpt>
      <trkpt lat="44.12139" lon="6.90946">
        <ele>1333.01</ele>
        <time>2018-07-02T07:06:09Z</time>
      </trkpt>
      <trkpt lat="44.12149" lon="6.9095">
        <ele>1335.41</ele>
        <time>2018-07-02T07:06:23Z</time>
      </trkpt>
      <trkpt lat="44.12159" lon="6.9096">
        <ele>1338.29</ele>
        <time>2018-07-02T07:06:44Z</time>
      </trkpt>
      <trkpt lat="44.12164" lon="6.90982">
        <ele>1345.5</ele>
        <time>2018-07-02T07:11:41Z</time>
      </trkpt>
      <trkpt lat="44.1218" lon="6.91001">
        <ele>1349.35</ele>
        <time>2018-07-02T07:12:14Z</time>
      </trkpt>
      <trkpt lat="44.12255" lon="6.9113">
        <ele>1353.19</ele>
        <time>2018-07-02T07:14:27Z</time>
      </trkpt>
      <trkpt lat="44.12273" lon="6.91162">
        <ele>1358</ele>
        <time>2018-07-02T07:15:04Z</time>
      </trkpt>
      <trkpt lat="44.12304" lon="6.91221">
        <ele>1367.61</ele>
        <time>2018-07-02T07:17:06Z</time>
      </trkpt>
      <trkpt lat="44.12312" lon="6.91234">
        <ele>1369.05</ele>
        <time>2018-07-02T07:17:23Z</time>
      </trkpt>
      <trkpt lat="44.12322" lon="6.91241">
        <ele>1370.5</ele>
        <time>2018-07-02T07:17:36Z</time>
      </trkpt>
      <trkpt lat="44.12332" lon="6.91249">
        <ele>1371.46</ele>
        <time>2018-07-02T07:17:50Z</time>
      </trkpt>
      <trkpt lat="44.12341" lon="6.9126">
        <ele>1372.42</ele>
        <time>2018-07-02T07:18:04Z</time>
      </trkpt>
      <trkpt lat="44.12349" lon="6.91272">
        <ele>1372.9</ele>
        <time>2018-07-02T07:18:18Z</time>
      </trkpt>
      <trkpt lat="44.1236" lon="6.91281">
        <ele>1373.38</ele>
        <time>2018-07-02T07:18:32Z</time>
      </trkpt>
      <trkpt lat="44.12376" lon="6.91287">
        <ele>1373.86</ele>
        <time>2018-07-02T07:18:50Z</time>
      </trkpt>
      <trkpt lat="44.12389" lon="6.91289">
        <ele>1373.86</ele>
        <time>2018-07-02T07:19:10Z</time>
      </trkpt>
      <trkpt lat="44.12367" lon="6.91217">
        <ele>1362.81</ele>
        <time>2018-07-02T07:21:16Z</time>
      </trkpt>
      <trkpt lat="44.12367" lon="6.91211">
        <ele>1362.33</ele>
        <time>2018-07-02T07:22:32Z</time>
      </trkpt>
      <trkpt lat="44.1237" lon="6.91222">
        <ele>1364.25</ele>
        <time>2018-07-02T07:22:42Z</time>
      </trkpt>
      <trkpt lat="44.12375" lon="6.91232">
        <ele>1365.69</ele>
        <time>2018-07-02T07:22:52Z</time>
      </trkpt>
      <trkpt lat="44.12378" lon="6.91244">
        <ele>1367.61</ele>
        <time>2018-07-02T07:23:02Z</time>
      </trkpt>
      <trkpt lat="44.12383" lon="6.91256">
        <ele>1369.54</ele>
        <time>2018-07-02T07:23:13Z</time>
      </trkpt>
      <trkpt lat="44.12389" lon="6.91271">
        <ele>1371.46</ele>
        <time>2018-07-02T07:23:26Z</time>
      </trkpt>
      <trkpt lat="44.12394" lon="6.91281">
        <ele>1372.9</ele>
        <time>2018-07-02T07:23:38Z</time>
      </trkpt>
      <trkpt lat="44.12385" lon="6.91289">
        <ele>1374.34</ele>
        <time>2018-07-02T07:23:56Z</time>
      </trkpt>
      <trkpt lat="44.12388" lon="6.91295">
        <ele>1377.23</ele>
        <time>2018-07-02T07:24:16Z</time>
      </trkpt>
      <trkpt lat="44.12421" lon="6.91311">
        <ele>1380.59</ele>
        <time>2018-07-02T07:26:03Z</time>
      </trkpt>
      <trkpt lat="44.12429" lon="6.9129">
        <ele>1390.2</ele>
        <time>2018-07-02T07:27:51Z</time>
      </trkpt>
      <trkpt lat="44.12423" lon="6.91261">
        <ele>1393.57</ele>
        <time>2018-07-02T07:28:55Z</time>
      </trkpt>
      <trkpt lat="44.12421" lon="6.9124">
        <ele>1395.97</ele>
        <time>2018-07-02T07:29:17Z</time>
      </trkpt>
      <trkpt lat="44.12426" lon="6.91224">
        <ele>1397.41</ele>
        <time>2018-07-02T07:29:32Z</time>
      </trkpt>
      <trkpt lat="44.12431" lon="6.91231">
        <ele>1400.78</ele>
        <time>2018-07-02T07:30:23Z</time>
      </trkpt>
      <trkpt lat="44.12439" lon="6.91221">
        <ele>1404.14</ele>
        <time>2018-07-02T07:30:54Z</time>
      </trkpt>
      <trkpt lat="44.12442" lon="6.91208">
        <ele>1406.07</ele>
        <time>2018-07-02T07:31:28Z</time>
      </trkpt>
      <trkpt lat="44.12445" lon="6.91195">
        <ele>1408.95</ele>
        <time>2018-07-02T07:31:44Z</time>
      </trkpt>
      <trkpt lat="44.12443" lon="6.91182">
        <ele>1410.39</ele>
        <time>2018-07-02T07:32:50Z</time>
      </trkpt>
      <trkpt lat="44.1245" lon="6.91194">
        <ele>1411.35</ele>
        <time>2018-07-02T07:34:14Z</time>
      </trkpt>
      <trkpt lat="44.12454" lon="6.9121">
        <ele>1412.79</ele>
        <time>2018-07-02T07:34:45Z</time>
      </trkpt>
      <trkpt lat="44.12459" lon="6.91222">
        <ele>1414.72</ele>
        <time>2018-07-02T07:35:40Z</time>
      </trkpt>
      <trkpt lat="44.12463" lon="6.91234">
        <ele>1416.64</ele>
        <time>2018-07-02T07:36:15Z</time>
      </trkpt>
      <trkpt lat="44.12471" lon="6.91243">
        <ele>1417.12</ele>
        <time>2018-07-02T07:36:28Z</time>
      </trkpt>
      <trkpt lat="44.12478" lon="6.91252">
        <ele>1418.56</ele>
        <time>2018-07-02T07:36:51Z</time>
      </trkpt>
      <trkpt lat="44.12489" lon="6.91265">
        <ele>1420.49</ele>
        <time>2018-07-02T07:38:08Z</time>
      </trkpt>
      <trkpt lat="44.12496" lon="6.91276">
        <ele>1422.41</ele>
        <time>2018-07-02T07:38:20Z</time>
      </trkpt>
      <trkpt lat="44.12503" lon="6.91286">
        <ele>1423.85</ele>
        <time>2018-07-02T07:38:32Z</time>
      </trkpt>
      <trkpt lat="44.12512" lon="6.91294">
        <ele>1424.81</ele>
        <time>2018-07-02T07:38:46Z</time>
      </trkpt>
      <trkpt lat="44.12522" lon="6.91301">
        <ele>1426.25</ele>
        <time>2018-07-02T07:39:02Z</time>
      </trkpt>
      <trkpt lat="44.1254" lon="6.91314">
        <ele>1426.73</ele>
        <time>2018-07-02T07:39:40Z</time>
      </trkpt>
      <trkpt lat="44.12557" lon="6.91326">
        <ele>1427.21</ele>
        <time>2018-07-02T07:40:03Z</time>
      </trkpt>
      <trkpt lat="44.12568" lon="6.91335">
        <ele>1427.21</ele>
        <time>2018-07-02T07:40:15Z</time>
      </trkpt>
      <trkpt lat="44.1258" lon="6.91341">
        <ele>1427.7</ele>
        <time>2018-07-02T07:40:28Z</time>
      </trkpt>
      <trkpt lat="44.12589" lon="6.91353">
        <ele>1428.18</ele>
        <time>2018-07-02T07:41:05Z</time>
      </trkpt>
      <trkpt lat="44.12596" lon="6.91364">
        <ele>1428.66</ele>
        <time>2018-07-02T07:41:16Z</time>
      </trkpt>
      <trkpt lat="44.126" lon="6.91376">
        <ele>1428.66</ele>
        <time>2018-07-02T07:41:27Z</time>
      </trkpt>
      <trkpt lat="44.12606" lon="6.91387">
        <ele>1428.66</ele>
        <time>2018-07-02T07:41:38Z</time>
      </trkpt>
      <trkpt lat="44.12613" lon="6.91399">
        <ele>1429.14</ele>
        <time>2018-07-02T07:41:50Z</time>
      </trkpt>
      <trkpt lat="44.12621" lon="6.91414">
        <ele>1429.14</ele>
        <time>2018-07-02T07:42:02Z</time>
      </trkpt>
      <trkpt lat="44.12628" lon="6.91438">
        <ele>1429.14</ele>
        <time>2018-07-02T07:42:51Z</time>
      </trkpt>
      <trkpt lat="44.1263" lon="6.91472">
        <ele>1433.46</ele>
        <time>2018-07-02T07:43:27Z</time>
      </trkpt>
      <trkpt lat="44.1263" lon="6.91507">
        <ele>1435.39</ele>
        <time>2018-07-02T07:44:04Z</time>
      </trkpt>
      <trkpt lat="44.12635" lon="6.91525">
        <ele>1436.83</ele>
        <time>2018-07-02T07:44:22Z</time>
      </trkpt>
      <trkpt lat="44.12642" lon="6.91549">
        <ele>1441.63</ele>
        <time>2018-07-02T07:44:48Z</time>
      </trkpt>
      <trkpt lat="44.12647" lon="6.91562">
        <ele>1442.6</ele>
        <time>2018-07-02T07:45:04Z</time>
      </trkpt>
      <trkpt lat="44.1267" lon="6.91579">
        <ele>1449.81</ele>
        <time>2018-07-02T07:46:37Z</time>
      </trkpt>
      <trkpt lat="44.12692" lon="6.91591">
        <ele>1453.65</ele>
        <time>2018-07-02T07:48:08Z</time>
      </trkpt>
      <trkpt lat="44.12713" lon="6.9162">
        <ele>1460.38</ele>
        <time>2018-07-02T07:49:06Z</time>
      </trkpt>
      <trkpt lat="44.12739" lon="6.91631">
        <ele>1468.55</ele>
        <time>2018-07-02T07:50:52Z</time>
      </trkpt>
      <trkpt lat="44.12755" lon="6.91632">
        <ele>1472.88</ele>
        <time>2018-07-02T07:51:53Z</time>
      </trkpt>
      <trkpt lat="44.12758" lon="6.91633">
        <ele>1473.84</ele>
        <time>2018-07-02T07:52:50Z</time>
      </trkpt>
      <trkpt lat="44.12774" lon="6.9163">
        <ele>1476.24</ele>
        <time>2018-07-02T07:54:05Z</time>
      </trkpt>
      <trkpt lat="44.12796" lon="6.91624">
        <ele>1482.01</ele>
        <time>2018-07-02T07:54:49Z</time>
      </trkpt>
      <trkpt lat="44.12805" lon="6.91635">
        <ele>1486.82</ele>
        <time>2018-07-02T07:56:40Z</time>
      </trkpt>
      <trkpt lat="44.12812" lon="6.91647">
        <ele>1490.18</ele>
        <time>2018-07-02T07:57:24Z</time>
      </trkpt>
      <trkpt lat="44.12824" lon="6.91661">
        <ele>1493.55</ele>
        <time>2018-07-02T07:58:44Z</time>
      </trkpt>
      <trkpt lat="44.12842" lon="6.91673">
        <ele>1498.83</ele>
        <time>2018-07-02T07:59:19Z</time>
      </trkpt>
      <trkpt lat="44.12858" lon="6.91692">
        <ele>1504.6</ele>
        <time>2018-07-02T08:00:54Z</time>
      </trkpt>
      <trkpt lat="44.12852" lon="6.91708">
        <ele>1507.48</ele>
        <time>2018-07-02T08:01:16Z</time>
      </trkpt>
      <trkpt lat="44.12857" lon="6.91712">
        <ele>1512.29</ele>
        <time>2018-07-02T08:02:06Z</time>
      </trkpt>
      <trkpt lat="44.12897" lon="6.91743">
        <ele>1522.39</ele>
        <time>2018-07-02T08:03:38Z</time>
      </trkpt>
      <trkpt lat="44.12966" lon="6.91739">
        <ele>1538.25</ele>
        <time>2018-07-02T08:08:03Z</time>
      </trkpt>
      <trkpt lat="44.12978" lon="6.9174">
        <ele>1540.17</ele>
        <time>2018-07-02T08:08:17Z</time>
      </trkpt>
      <trkpt lat="44.12996" lon="6.91745">
        <ele>1542.57</ele>
        <time>2018-07-02T08:08:38Z</time>
      </trkpt>
      <trkpt lat="44.13008" lon="6.91748">
        <ele>1544.5</ele>
        <time>2018-07-02T08:08:53Z</time>
      </trkpt>
      <trkpt lat="44.13017" lon="6.91754">
        <ele>1546.9</ele>
        <time>2018-07-02T08:10:12Z</time>
      </trkpt>
      <trkpt lat="44.13028" lon="6.91761">
        <ele>1548.82</ele>
        <time>2018-07-02T08:10:26Z</time>
      </trkpt>
      <trkpt lat="44.13036" lon="6.91773">
        <ele>1550.74</ele>
        <time>2018-07-02T08:10:47Z</time>
      </trkpt>
      <trkpt lat="44.13045" lon="6.91786">
        <ele>1554.11</ele>
        <time>2018-07-02T08:11:07Z</time>
      </trkpt>
      <trkpt lat="44.13054" lon="6.91793">
        <ele>1556.51</ele>
        <time>2018-07-02T08:11:23Z</time>
      </trkpt>
      <trkpt lat="44.13065" lon="6.91799">
        <ele>1558.92</ele>
        <time>2018-07-02T08:11:40Z</time>
      </trkpt>
      <trkpt lat="44.13075" lon="6.91801">
        <ele>1561.32</ele>
        <time>2018-07-02T08:12:21Z</time>
      </trkpt>
      <trkpt lat="44.13081" lon="6.91817">
        <ele>1563.72</ele>
        <time>2018-07-02T08:12:49Z</time>
      </trkpt>
      <trkpt lat="44.13071" lon="6.91821">
        <ele>1567.09</ele>
        <time>2018-07-02T08:13:39Z</time>
      </trkpt>
      <trkpt lat="44.1307" lon="6.91834">
        <ele>1570.93</ele>
        <time>2018-07-02T08:14:08Z</time>
      </trkpt>
      <trkpt lat="44.13077" lon="6.91862">
        <ele>1578.14</ele>
        <time>2018-07-02T08:14:54Z</time>
      </trkpt>
      <trkpt lat="44.13085" lon="6.91871">
        <ele>1581.99</ele>
        <time>2018-07-02T08:17:17Z</time>
      </trkpt>
      <trkpt lat="44.13092" lon="6.91889">
        <ele>1584.87</ele>
        <time>2018-07-02T08:17:36Z</time>
      </trkpt>
      <trkpt lat="44.13124" lon="6.91926">
        <ele>1592.08</ele>
        <time>2018-07-02T08:18:56Z</time>
      </trkpt>
      <trkpt lat="44.13132" lon="6.91974">
        <ele>1606.5</ele>
        <time>2018-07-02T08:20:50Z</time>
      </trkpt>
      <trkpt lat="44.13137" lon="6.9201">
        <ele>1612.75</ele>
        <time>2018-07-02T08:21:45Z</time>
      </trkpt>
      <trkpt lat="44.13128" lon="6.92028">
        <ele>1618.52</ele>
        <time>2018-07-02T08:22:44Z</time>
      </trkpt>
      <trkpt lat="44.13119" lon="6.92041">
        <ele>1624.28</ele>
        <time>2018-07-02T08:23:57Z</time>
      </trkpt>
      <trkpt lat="44.1312" lon="6.92048">
        <ele>1630.05</ele>
        <time>2018-07-02T08:27:05Z</time>
      </trkpt>
      <trkpt lat="44.13122" lon="6.92082">
        <ele>1637.26</ele>
        <time>2018-07-02T08:27:49Z</time>
      </trkpt>
      <trkpt lat="44.13124" lon="6.92097">
        <ele>1640.63</ele>
        <time>2018-07-02T08:28:11Z</time>
      </trkpt>
      <trkpt lat="44.13111" lon="6.92097">
        <ele>1643.03</ele>
        <time>2018-07-02T08:28:34Z</time>
      </trkpt>
      <trkpt lat="44.13094" lon="6.92099">
        <ele>1649.28</ele>
        <time>2018-07-02T08:31:48Z</time>
      </trkpt>
      <trkpt lat="44.13078" lon="6.92092">
        <ele>1653.6</ele>
        <time>2018-07-02T08:32:30Z</time>
      </trkpt>
      <trkpt lat="44.13058" lon="6.92101">
        <ele>1657.93</ele>
        <time>2018-07-02T08:33:14Z</time>
      </trkpt>
      <trkpt lat="44.13009" lon="6.92137">
        <ele>1672.83</ele>
        <time>2018-07-02T08:39:05Z</time>
      </trkpt>
      <trkpt lat="44.12995" lon="6.92149">
        <ele>1675.23</ele>
        <time>2018-07-02T08:40:14Z</time>
      </trkpt>
      <trkpt lat="44.12994" lon="6.92168">
        <ele>1677.64</ele>
        <time>2018-07-02T08:40:36Z</time>
      </trkpt>
      <trkpt lat="44.12997" lon="6.92174">
        <ele>1680.04</ele>
        <time>2018-07-02T08:40:55Z</time>
      </trkpt>
      <trkpt lat="44.13008" lon="6.9217">
        <ele>1681.96</ele>
        <time>2018-07-02T08:41:11Z</time>
      </trkpt>
      <trkpt lat="44.13019" lon="6.92172">
        <ele>1683.89</ele>
        <time>2018-07-02T08:41:26Z</time>
      </trkpt>
      <trkpt lat="44.13031" lon="6.92174">
        <ele>1685.81</ele>
        <time>2018-07-02T08:41:43Z</time>
      </trkpt>
      <trkpt lat="44.13044" lon="6.92191">
        <ele>1688.69</ele>
        <time>2018-07-02T08:42:08Z</time>
      </trkpt>
      <trkpt lat="44.13055" lon="6.92204">
        <ele>1692.06</ele>
        <time>2018-07-02T08:42:33Z</time>
      </trkpt>
      <trkpt lat="44.13077" lon="6.92215">
        <ele>1695.9</ele>
        <time>2018-07-02T08:43:19Z</time>
      </trkpt>
      <trkpt lat="44.13086" lon="6.9222">
        <ele>1698.31</ele>
        <time>2018-07-02T08:43:35Z</time>
      </trkpt>
      <trkpt lat="44.13094" lon="6.92225">
        <ele>1698.79</ele>
        <time>2018-07-02T08:44:59Z</time>
      </trkpt>
      <trkpt lat="44.13102" lon="6.92235">
        <ele>1700.71</ele>
        <time>2018-07-02T08:45:13Z</time>
      </trkpt>
      <trkpt lat="44.13111" lon="6.92247">
        <ele>1701.67</ele>
        <time>2018-07-02T08:45:27Z</time>
      </trkpt>
      <trkpt lat="44.13118" lon="6.92259">
        <ele>1704.07</ele>
        <time>2018-07-02T08:45:42Z</time>
      </trkpt>
      <trkpt lat="44.13124" lon="6.92273">
        <ele>1706.96</ele>
        <time>2018-07-02T08:46:16Z</time>
      </trkpt>
      <trkpt lat="44.13132" lon="6.92286">
        <ele>1709.36</ele>
        <time>2018-07-02T08:46:36Z</time>
      </trkpt>
      <trkpt lat="44.13133" lon="6.9229">
        <ele>1711.28</ele>
        <time>2018-07-02T08:46:54Z</time>
      </trkpt>
      <trkpt lat="44.13091" lon="6.92283">
        <ele>1719.94</ele>
        <time>2018-07-02T08:48:04Z</time>
      </trkpt>
      <trkpt lat="44.1308" lon="6.92281">
        <ele>1722.82</ele>
        <time>2018-07-02T08:49:52Z</time>
      </trkpt>
      <trkpt lat="44.13068" lon="6.92281">
        <ele>1725.7</ele>
        <time>2018-07-02T08:50:10Z</time>
      </trkpt>
      <trkpt lat="44.13057" lon="6.92278">
        <ele>1728.11</ele>
        <time>2018-07-02T08:50:28Z</time>
      </trkpt>
      <trkpt lat="44.13046" lon="6.9228">
        <ele>1730.51</ele>
        <time>2018-07-02T08:50:48Z</time>
      </trkpt>
      <trkpt lat="44.13037" lon="6.92284">
        <ele>1731.95</ele>
        <time>2018-07-02T08:51:42Z</time>
      </trkpt>
      <trkpt lat="44.13026" lon="6.92291">
        <ele>1733.88</ele>
        <time>2018-07-02T08:51:59Z</time>
      </trkpt>
      <trkpt lat="44.13019" lon="6.92301">
        <ele>1736.28</ele>
        <time>2018-07-02T08:52:16Z</time>
      </trkpt>
      <trkpt lat="44.13015" lon="6.92313">
        <ele>1738.2</ele>
        <time>2018-07-02T08:52:37Z</time>
      </trkpt>
      <trkpt lat="44.13015" lon="6.92323">
        <ele>1739.64</ele>
        <time>2018-07-02T08:52:53Z</time>
      </trkpt>
      <trkpt lat="44.13025" lon="6.92326">
        <ele>1742.05</ele>
        <time>2018-07-02T08:53:09Z</time>
      </trkpt>
      <trkpt lat="44.13035" lon="6.92334">
        <ele>1743.97</ele>
        <time>2018-07-02T08:53:26Z</time>
      </trkpt>
      <trkpt lat="44.13044" lon="6.92339">
        <ele>1746.85</ele>
        <time>2018-07-02T08:54:56Z</time>
      </trkpt>
      <trkpt lat="44.13051" lon="6.92349">
        <ele>1749.26</ele>
        <time>2018-07-02T08:55:18Z</time>
      </trkpt>
      <trkpt lat="44.1305" lon="6.92366">
        <ele>1751.66</ele>
        <time>2018-07-02T08:55:35Z</time>
      </trkpt>
      <trkpt lat="44.13056" lon="6.9237">
        <ele>1754.06</ele>
        <time>2018-07-02T08:55:58Z</time>
      </trkpt>
      <trkpt lat="44.13066" lon="6.92373">
        <ele>1755.99</ele>
        <time>2018-07-02T08:56:13Z</time>
      </trkpt>
      <trkpt lat="44.13078" lon="6.92378">
        <ele>1757.91</ele>
        <time>2018-07-02T08:56:28Z</time>
      </trkpt>
      <trkpt lat="44.13087" lon="6.92381">
        <ele>1759.83</ele>
        <time>2018-07-02T08:56:42Z</time>
      </trkpt>
      <trkpt lat="44.13096" lon="6.92386">
        <ele>1761.27</ele>
        <time>2018-07-02T08:56:56Z</time>
      </trkpt>
      <trkpt lat="44.13105" lon="6.92391">
        <ele>1763.2</ele>
        <time>2018-07-02T08:57:11Z</time>
      </trkpt>
      <trkpt lat="44.13115" lon="6.92397">
        <ele>1764.64</ele>
        <time>2018-07-02T08:57:26Z</time>
      </trkpt>
      <trkpt lat="44.13125" lon="6.92407">
        <ele>1765.12</ele>
        <time>2018-07-02T08:57:39Z</time>
      </trkpt>
      <trkpt lat="44.13132" lon="6.92417">
        <ele>1765.6</ele>
        <time>2018-07-02T08:57:51Z</time>
      </trkpt>
      <trkpt lat="44.13139" lon="6.92427">
        <ele>1765.6</ele>
        <time>2018-07-02T08:58:05Z</time>
      </trkpt>
      <trkpt lat="44.13148" lon="6.92435">
        <ele>1764.16</ele>
        <time>2018-07-02T08:58:17Z</time>
      </trkpt>
      <trkpt lat="44.13157" lon="6.92448">
        <ele>1764.64</ele>
        <time>2018-07-02T08:58:31Z</time>
      </trkpt>
      <trkpt lat="44.13167" lon="6.92451">
        <ele>1764.64</ele>
        <time>2018-07-02T08:58:43Z</time>
      </trkpt>
      <trkpt lat="44.13175" lon="6.92453">
        <ele>1767.04</ele>
        <time>2018-07-02T08:59:32Z</time>
      </trkpt>
      <trkpt lat="44.13185" lon="6.92459">
        <ele>1768</ele>
        <time>2018-07-02T08:59:46Z</time>
      </trkpt>
      <trkpt lat="44.13196" lon="6.92464">
        <ele>1769.92</ele>
        <time>2018-07-02T09:00:04Z</time>
      </trkpt>
      <trkpt lat="44.13206" lon="6.92468">
        <ele>1772.33</ele>
        <time>2018-07-02T09:00:21Z</time>
      </trkpt>
      <trkpt lat="44.13216" lon="6.92472">
        <ele>1773.77</ele>
        <time>2018-07-02T09:00:35Z</time>
      </trkpt>
      <trkpt lat="44.13225" lon="6.92476">
        <ele>1776.65</ele>
        <time>2018-07-02T09:00:53Z</time>
      </trkpt>
      <trkpt lat="44.13234" lon="6.92472">
        <ele>1779.06</ele>
        <time>2018-07-02T09:01:11Z</time>
      </trkpt>
      <trkpt lat="44.1324" lon="6.92461">
        <ele>1780.98</ele>
        <time>2018-07-02T09:01:29Z</time>
      </trkpt>
      <trkpt lat="44.13247" lon="6.92451">
        <ele>1783.38</ele>
        <time>2018-07-02T09:01:54Z</time>
      </trkpt>
      <trkpt lat="44.13255" lon="6.92443">
        <ele>1784.82</ele>
        <time>2018-07-02T09:02:09Z</time>
      </trkpt>
      <trkpt lat="44.13262" lon="6.92433">
        <ele>1786.75</ele>
        <time>2018-07-02T09:02:25Z</time>
      </trkpt>
      <trkpt lat="44.13267" lon="6.92426">
        <ele>1786.75</ele>
        <time>2018-07-02T09:02:52Z</time>
      </trkpt>
      <trkpt lat="44.13263" lon="6.9248">
        <ele>1793.96</ele>
        <time>2018-07-02T09:08:27Z</time>
      </trkpt>
      <trkpt lat="44.13264" lon="6.92491">
        <ele>1796.36</ele>
        <time>2018-07-02T09:08:41Z</time>
      </trkpt>
      <trkpt lat="44.13263" lon="6.92504">
        <ele>1796.84</ele>
        <time>2018-07-02T09:08:54Z</time>
      </trkpt>
      <trkpt lat="44.13262" lon="6.92515">
        <ele>1798.76</ele>
        <time>2018-07-02T09:09:40Z</time>
      </trkpt>
      <trkpt lat="44.13243" lon="6.92535">
        <ele>1796.84</ele>
        <time>2018-07-02T09:12:14Z</time>
      </trkpt>
      <trkpt lat="44.13216" lon="6.92541">
        <ele>1798.76</ele>
        <time>2018-07-02T09:12:50Z</time>
      </trkpt>
      <trkpt lat="44.1319" lon="6.92535">
        <ele>1798.76</ele>
        <time>2018-07-02T09:15:36Z</time>
      </trkpt>
      <trkpt lat="44.13174" lon="6.92537">
        <ele>1796.84</ele>
        <time>2018-07-02T09:16:12Z</time>
      </trkpt>
      <trkpt lat="44.1316" lon="6.92528">
        <ele>1796.84</ele>
        <time>2018-07-02T09:16:27Z</time>
      </trkpt>
      <trkpt lat="44.13149" lon="6.92518">
        <ele>1796.84</ele>
        <time>2018-07-02T09:16:40Z</time>
      </trkpt>
      <trkpt lat="44.13136" lon="6.92506">
        <ele>1794.44</ele>
        <time>2018-07-02T09:17:06Z</time>
      </trkpt>
      <trkpt lat="44.13126" lon="6.92503">
        <ele>1793.48</ele>
        <time>2018-07-02T09:17:15Z</time>
      </trkpt>
      <trkpt lat="44.13116" lon="6.92503">
        <ele>1792.52</ele>
        <time>2018-07-02T09:17:25Z</time>
      </trkpt>
      <trkpt lat="44.13107" lon="6.92504">
        <ele>1791.07</ele>
        <time>2018-07-02T09:17:38Z</time>
      </trkpt>
      <trkpt lat="44.13097" lon="6.92506">
        <ele>1790.11</ele>
        <time>2018-07-02T09:17:48Z</time>
      </trkpt>
      <trkpt lat="44.13088" lon="6.92512">
        <ele>1789.15</ele>
        <time>2018-07-02T09:17:59Z</time>
      </trkpt>
      <trkpt lat="44.13078" lon="6.92516">
        <ele>1788.19</ele>
        <time>2018-07-02T09:18:09Z</time>
      </trkpt>
      <trkpt lat="44.13068" lon="6.92521">
        <ele>1787.71</ele>
        <time>2018-07-02T09:18:19Z</time>
      </trkpt>
      <trkpt lat="44.13059" lon="6.92527">
        <ele>1787.71</ele>
        <time>2018-07-02T09:18:29Z</time>
      </trkpt>
      <trkpt lat="44.1305" lon="6.92531">
        <ele>1786.27</ele>
        <time>2018-07-02T09:19:36Z</time>
      </trkpt>
      <trkpt lat="44.13041" lon="6.92541">
        <ele>1784.82</ele>
        <time>2018-07-02T09:20:19Z</time>
      </trkpt>
      <trkpt lat="44.1303" lon="6.92547">
        <ele>1784.82</ele>
        <time>2018-07-02T09:20:41Z</time>
      </trkpt>
      <trkpt lat="44.1302" lon="6.92557">
        <ele>1784.82</ele>
        <time>2018-07-02T09:21:26Z</time>
      </trkpt>
      <trkpt lat="44.13011" lon="6.92565">
        <ele>1784.82</ele>
        <time>2018-07-02T09:22:06Z</time>
      </trkpt>
      <trkpt lat="44.13005" lon="6.92576">
        <ele>1784.34</ele>
        <time>2018-07-02T09:22:26Z</time>
      </trkpt>
      <trkpt lat="44.12997" lon="6.92585">
        <ele>1782.9</ele>
        <time>2018-07-02T09:22:38Z</time>
      </trkpt>
      <trkpt lat="44.12991" lon="6.92595">
        <ele>1783.38</ele>
        <time>2018-07-02T09:22:48Z</time>
      </trkpt>
      <trkpt lat="44.12984" lon="6.92605">
        <ele>1782.42</ele>
        <time>2018-07-02T09:23:01Z</time>
      </trkpt>
      <trkpt lat="44.12977" lon="6.92615">
        <ele>1780.98</ele>
        <time>2018-07-02T09:23:15Z</time>
      </trkpt>
      <trkpt lat="44.1297" lon="6.92612">
        <ele>1780.98</ele>
        <time>2018-07-02T09:23:29Z</time>
      </trkpt>
      <trkpt lat="44.12967" lon="6.92608">
        <ele>1780.02</ele>
        <time>2018-07-02T09:27:31Z</time>
      </trkpt>
      <trkpt lat="44.12957" lon="6.92608">
        <ele>1780.02</ele>
        <time>2018-07-02T09:29:48Z</time>
      </trkpt>
      <trkpt lat="44.12946" lon="6.92611">
        <ele>1780.02</ele>
        <time>2018-07-02T09:29:58Z</time>
      </trkpt>
      <trkpt lat="44.12936" lon="6.92612">
        <ele>1779.06</ele>
        <time>2018-07-02T09:30:08Z</time>
      </trkpt>
      <trkpt lat="44.12927" lon="6.92616">
        <ele>1777.61</ele>
        <time>2018-07-02T09:30:18Z</time>
      </trkpt>
      <trkpt lat="44.12919" lon="6.92623">
        <ele>1776.65</ele>
        <time>2018-07-02T09:30:28Z</time>
      </trkpt>
      <trkpt lat="44.12913" lon="6.92631">
        <ele>1776.17</ele>
        <time>2018-07-02T09:30:39Z</time>
      </trkpt>
      <trkpt lat="44.12905" lon="6.92638">
        <ele>1775.21</ele>
        <time>2018-07-02T09:30:48Z</time>
      </trkpt>
      <trkpt lat="44.12896" lon="6.92646">
        <ele>1774.25</ele>
        <time>2018-07-02T09:30:57Z</time>
      </trkpt>
      <trkpt lat="44.12888" lon="6.92654">
        <ele>1773.77</ele>
        <time>2018-07-02T09:31:07Z</time>
      </trkpt>
      <trkpt lat="44.12881" lon="6.92665">
        <ele>1773.77</ele>
        <time>2018-07-02T09:31:17Z</time>
      </trkpt>
      <trkpt lat="44.1288" lon="6.92673">
        <ele>1772.81</ele>
        <time>2018-07-02T09:31:52Z</time>
      </trkpt>
      <trkpt lat="44.12883" lon="6.92686">
        <ele>1770.89</ele>
        <time>2018-07-02T09:32:04Z</time>
      </trkpt>
      <trkpt lat="44.12885" lon="6.92699">
        <ele>1769.44</ele>
        <time>2018-07-02T09:32:15Z</time>
      </trkpt>
      <trkpt lat="44.12877" lon="6.92706">
        <ele>1767.52</ele>
        <time>2018-07-02T09:32:27Z</time>
      </trkpt>
      <trkpt lat="44.12866" lon="6.92704">
        <ele>1768</ele>
        <time>2018-07-02T09:32:45Z</time>
      </trkpt>
      <trkpt lat="44.12856" lon="6.92705">
        <ele>1767.52</ele>
        <time>2018-07-02T09:32:56Z</time>
      </trkpt>
      <trkpt lat="44.12846" lon="6.92703">
        <ele>1766.56</ele>
        <time>2018-07-02T09:33:10Z</time>
      </trkpt>
      <trkpt lat="44.12836" lon="6.927">
        <ele>1765.6</ele>
        <time>2018-07-02T09:33:19Z</time>
      </trkpt>
      <trkpt lat="44.12828" lon="6.92703">
        <ele>1765.6</ele>
        <time>2018-07-02T09:33:29Z</time>
      </trkpt>
      <trkpt lat="44.12821" lon="6.92713">
        <ele>1763.68</ele>
        <time>2018-07-02T09:33:41Z</time>
      </trkpt>
      <trkpt lat="44.12814" lon="6.92719">
        <ele>1762.71</ele>
        <time>2018-07-02T09:33:52Z</time>
      </trkpt>
      <trkpt lat="44.12803" lon="6.92718">
        <ele>1762.71</ele>
        <time>2018-07-02T09:34:19Z</time>
      </trkpt>
      <trkpt lat="44.12794" lon="6.92719">
        <ele>1762.71</ele>
        <time>2018-07-02T09:34:36Z</time>
      </trkpt>
      <trkpt lat="44.12786" lon="6.92728">
        <ele>1762.23</ele>
        <time>2018-07-02T09:35:05Z</time>
      </trkpt>
      <trkpt lat="44.12779" lon="6.92737">
        <ele>1760.79</ele>
        <time>2018-07-02T09:35:18Z</time>
      </trkpt>
      <trkpt lat="44.12771" lon="6.92744">
        <ele>1759.83</ele>
        <time>2018-07-02T09:35:34Z</time>
      </trkpt>
      <trkpt lat="44.12763" lon="6.92751">
        <ele>1759.35</ele>
        <time>2018-07-02T09:35:45Z</time>
      </trkpt>
      <trkpt lat="44.12756" lon="6.9276">
        <ele>1757.91</ele>
        <time>2018-07-02T09:35:56Z</time>
      </trkpt>
      <trkpt lat="44.12753" lon="6.92773">
        <ele>1756.95</ele>
        <time>2018-07-02T09:36:06Z</time>
      </trkpt>
      <trkpt lat="44.12747" lon="6.92783">
        <ele>1755.99</ele>
        <time>2018-07-02T09:36:16Z</time>
      </trkpt>
      <trkpt lat="44.1274" lon="6.92793">
        <ele>1754.54</ele>
        <time>2018-07-02T09:36:27Z</time>
      </trkpt>
      <trkpt lat="44.12734" lon="6.92803">
        <ele>1753.58</ele>
        <time>2018-07-02T09:36:37Z</time>
      </trkpt>
      <trkpt lat="44.1273" lon="6.92816">
        <ele>1752.62</ele>
        <time>2018-07-02T09:36:48Z</time>
      </trkpt>
      <trkpt lat="44.12724" lon="6.92827">
        <ele>1751.66</ele>
        <time>2018-07-02T09:36:58Z</time>
      </trkpt>
      <trkpt lat="44.12719" lon="6.92838">
        <ele>1750.7</ele>
        <time>2018-07-02T09:37:08Z</time>
      </trkpt>
      <trkpt lat="44.12712" lon="6.92847">
        <ele>1749.26</ele>
        <time>2018-07-02T09:37:49Z</time>
      </trkpt>
      <trkpt lat="44.12708" lon="6.92861">
        <ele>1748.78</ele>
        <time>2018-07-02T09:37:59Z</time>
      </trkpt>
      <trkpt lat="44.1271" lon="6.92873">
        <ele>1748.29</ele>
        <time>2018-07-02T09:38:10Z</time>
      </trkpt>
      <trkpt lat="44.12713" lon="6.92886">
        <ele>1747.33</ele>
        <time>2018-07-02T09:38:22Z</time>
      </trkpt>
      <trkpt lat="44.12703" lon="6.92894">
        <ele>1747.33</ele>
        <time>2018-07-02T09:38:32Z</time>
      </trkpt>
      <trkpt lat="44.12696" lon="6.92903">
        <ele>1747.33</ele>
        <time>2018-07-02T09:38:42Z</time>
      </trkpt>
      <trkpt lat="44.12692" lon="6.92915">
        <ele>1747.33</ele>
        <time>2018-07-02T09:38:53Z</time>
      </trkpt>
      <trkpt lat="44.12693" lon="6.92928">
        <ele>1745.89</ele>
        <time>2018-07-02T09:39:07Z</time>
      </trkpt>
      <trkpt lat="44.12697" lon="6.9294">
        <ele>1744.45</ele>
        <time>2018-07-02T09:39:21Z</time>
      </trkpt>
      <trkpt lat="44.12705" lon="6.9295">
        <ele>1743.49</ele>
        <time>2018-07-02T09:39:36Z</time>
      </trkpt>
      <trkpt lat="44.12714" lon="6.92959">
        <ele>1742.05</ele>
        <time>2018-07-02T09:39:56Z</time>
      </trkpt>
      <trkpt lat="44.12724" lon="6.92968">
        <ele>1741.57</ele>
        <time>2018-07-02T09:40:11Z</time>
      </trkpt>
      <trkpt lat="44.12729" lon="6.9298">
        <ele>1742.53</ele>
        <time>2018-07-02T09:40:24Z</time>
      </trkpt>
      <trkpt lat="44.12726" lon="6.92995">
        <ele>1742.53</ele>
        <time>2018-07-02T09:40:35Z</time>
      </trkpt>
      <trkpt lat="44.1272" lon="6.93006">
        <ele>1743.01</ele>
        <time>2018-07-02T09:40:45Z</time>
      </trkpt>
      <trkpt lat="44.12715" lon="6.93017">
        <ele>1743.49</ele>
        <time>2018-07-02T09:40:56Z</time>
      </trkpt>
      <trkpt lat="44.1271" lon="6.93031">
        <ele>1743.97</ele>
        <time>2018-07-02T09:41:08Z</time>
      </trkpt>
      <trkpt lat="44.12707" lon="6.93047">
        <ele>1744.93</ele>
        <time>2018-07-02T09:41:21Z</time>
      </trkpt>
      <trkpt lat="44.12704" lon="6.93062">
        <ele>1745.89</ele>
        <time>2018-07-02T09:41:36Z</time>
      </trkpt>
      <trkpt lat="44.12704" lon="6.93078">
        <ele>1745.89</ele>
        <time>2018-07-02T09:41:51Z</time>
      </trkpt>
      <trkpt lat="44.127" lon="6.93093">
        <ele>1746.85</ele>
        <time>2018-07-02T09:42:13Z</time>
      </trkpt>
      <trkpt lat="44.12696" lon="6.93105">
        <ele>1746.85</ele>
        <time>2018-07-02T09:42:57Z</time>
      </trkpt>
      <trkpt lat="44.12687" lon="6.93117">
        <ele>1746.85</ele>
        <time>2018-07-02T09:43:14Z</time>
      </trkpt>
      <trkpt lat="44.12687" lon="6.93128">
        <ele>1745.41</ele>
        <time>2018-07-02T09:43:37Z</time>
      </trkpt>
      <trkpt lat="44.12681" lon="6.93132">
        <ele>1745.41</ele>
        <time>2018-07-02T09:46:40Z</time>
      </trkpt>
      <trkpt lat="44.12687" lon="6.93123">
        <ele>1744.93</ele>
        <time>2018-07-02T09:50:23Z</time>
      </trkpt>
      <trkpt lat="44.12687" lon="6.93114">
        <ele>1747.81</ele>
        <time>2018-07-02T09:51:24Z</time>
      </trkpt>
      <trkpt lat="44.12694" lon="6.93102">
        <ele>1747.81</ele>
        <time>2018-07-02T09:51:43Z</time>
      </trkpt>
      <trkpt lat="44.12698" lon="6.931">
        <ele>1746.85</ele>
        <time>2018-07-02T09:52:08Z</time>
      </trkpt>
      <trkpt lat="44.12698" lon="6.93086">
        <ele>1744.45</ele>
        <time>2018-07-02T09:52:26Z</time>
      </trkpt>
      <trkpt lat="44.12699" lon="6.93071">
        <ele>1742.53</ele>
        <time>2018-07-02T09:52:39Z</time>
      </trkpt>
      <trkpt lat="44.12695" lon="6.93057">
        <ele>1740.12</ele>
        <time>2018-07-02T09:52:56Z</time>
      </trkpt>
      <trkpt lat="44.1269" lon="6.93063">
        <ele>1736.76</ele>
        <time>2018-07-02T09:53:15Z</time>
      </trkpt>
      <trkpt lat="44.12681" lon="6.93086">
        <ele>1732.43</ele>
        <time>2018-07-02T09:54:24Z</time>
      </trkpt>
      <trkpt lat="44.12674" lon="6.93092">
        <ele>1729.07</ele>
        <time>2018-07-02T09:54:46Z</time>
      </trkpt>
      <trkpt lat="44.1267" lon="6.93088">
        <ele>1725.22</ele>
        <time>2018-07-02T09:55:14Z</time>
      </trkpt>
      <trkpt lat="44.12657" lon="6.931">
        <ele>1721.86</ele>
        <time>2018-07-02T09:55:35Z</time>
      </trkpt>
      <trkpt lat="44.12634" lon="6.93122">
        <ele>1716.57</ele>
        <time>2018-07-02T09:56:12Z</time>
      </trkpt>
      <trkpt lat="44.12622" lon="6.93144">
        <ele>1715.61</ele>
        <time>2018-07-02T09:56:37Z</time>
      </trkpt>
      <trkpt lat="44.12611" lon="6.93162">
        <ele>1712.73</ele>
        <time>2018-07-02T09:57:05Z</time>
      </trkpt>
      <trkpt lat="44.12603" lon="6.93174">
        <ele>1710.8</ele>
        <time>2018-07-02T09:57:46Z</time>
      </trkpt>
      <trkpt lat="44.12605" lon="6.93189">
        <ele>1710.8</ele>
        <time>2018-07-02T09:58:02Z</time>
      </trkpt>
      <trkpt lat="44.12614" lon="6.93212">
        <ele>1710.8</ele>
        <time>2018-07-02T09:58:39Z</time>
      </trkpt>
      <trkpt lat="44.12629" lon="6.93225">
        <ele>1710.8</ele>
        <time>2018-07-02T09:59:18Z</time>
      </trkpt>
      <trkpt lat="44.12619" lon="6.93219">
        <ele>1710.8</ele>
        <time>2018-07-02T09:59:28Z</time>
      </trkpt>
      <trkpt lat="44.12612" lon="6.93211">
        <ele>1710.8</ele>
        <time>2018-07-02T09:59:36Z</time>
      </trkpt>
      <trkpt lat="44.12605" lon="6.93197">
        <ele>1710.8</ele>
        <time>2018-07-02T09:59:46Z</time>
      </trkpt>
      <trkpt lat="44.12602" lon="6.93186">
        <ele>1710.8</ele>
        <time>2018-07-02T09:59:56Z</time>
      </trkpt>
      <trkpt lat="44.126" lon="6.93174">
        <ele>1710.8</ele>
        <time>2018-07-02T10:00:10Z</time>
      </trkpt>
      <trkpt lat="44.12584" lon="6.93188">
        <ele>1705.04</ele>
        <time>2018-07-02T10:00:49Z</time>
      </trkpt>
      <trkpt lat="44.12566" lon="6.93213">
        <ele>1696.38</ele>
        <time>2018-07-02T10:01:34Z</time>
      </trkpt>
      <trkpt lat="44.12561" lon="6.93231">
        <ele>1690.62</ele>
        <time>2018-07-02T10:02:25Z</time>
      </trkpt>
      <trkpt lat="44.12565" lon="6.93262">
        <ele>1682.93</ele>
        <time>2018-07-02T10:03:28Z</time>
      </trkpt>
      <trkpt lat="44.12565" lon="6.93279">
        <ele>1681.96</ele>
        <time>2018-07-02T10:03:39Z</time>
      </trkpt>
      <trkpt lat="44.1256" lon="6.93299">
        <ele>1680.52</ele>
        <time>2018-07-02T10:04:00Z</time>
      </trkpt>
      <trkpt lat="44.12549" lon="6.93296">
        <ele>1677.64</ele>
        <time>2018-07-02T10:04:14Z</time>
      </trkpt>
      <trkpt lat="44.12538" lon="6.933">
        <ele>1677.16</ele>
        <time>2018-07-02T10:04:27Z</time>
      </trkpt>
      <trkpt lat="44.12517" lon="6.93307">
        <ele>1674.75</ele>
        <time>2018-07-02T10:05:21Z</time>
      </trkpt>
      <trkpt lat="44.12498" lon="6.93296">
        <ele>1671.39</ele>
        <time>2018-07-02T10:05:46Z</time>
      </trkpt>
      <trkpt lat="44.12485" lon="6.93293">
        <ele>1670.43</ele>
        <time>2018-07-02T10:06:01Z</time>
      </trkpt>
      <trkpt lat="44.12474" lon="6.93293">
        <ele>1669.95</ele>
        <time>2018-07-02T10:06:12Z</time>
      </trkpt>
      <trkpt lat="44.12464" lon="6.93288">
        <ele>1668.99</ele>
        <time>2018-07-02T10:06:23Z</time>
      </trkpt>
      <trkpt lat="44.12451" lon="6.93287">
        <ele>1666.58</ele>
        <time>2018-07-02T10:06:39Z</time>
      </trkpt>
      <trkpt lat="44.12435" lon="6.93285">
        <ele>1664.66</ele>
        <time>2018-07-02T10:06:56Z</time>
      </trkpt>
      <trkpt lat="44.12425" lon="6.93291">
        <ele>1664.66</ele>
        <time>2018-07-02T10:07:09Z</time>
      </trkpt>
      <trkpt lat="44.12414" lon="6.93293">
        <ele>1664.66</ele>
        <time>2018-07-02T10:07:21Z</time>
      </trkpt>
      <trkpt lat="44.12396" lon="6.93295">
        <ele>1662.74</ele>
        <time>2018-07-02T10:09:35Z</time>
      </trkpt>
      <trkpt lat="44.12386" lon="6.93298">
        <ele>1661.3</ele>
        <time>2018-07-02T10:09:46Z</time>
      </trkpt>
      <trkpt lat="44.12376" lon="6.93301">
        <ele>1659.85</ele>
        <time>2018-07-02T10:09:56Z</time>
      </trkpt>
      <trkpt lat="44.12366" lon="6.93309">
        <ele>1659.37</ele>
        <time>2018-07-02T10:10:08Z</time>
      </trkpt>
      <trkpt lat="44.12348" lon="6.93319">
        <ele>1659.37</ele>
        <time>2018-07-02T10:10:28Z</time>
      </trkpt>
      <trkpt lat="44.12332" lon="6.93324">
        <ele>1656.49</ele>
        <time>2018-07-02T10:10:48Z</time>
      </trkpt>
      <trkpt lat="44.1232" lon="6.93318">
        <ele>1654.09</ele>
        <time>2018-07-02T10:11:04Z</time>
      </trkpt>
      <trkpt lat="44.1231" lon="6.93316">
        <ele>1652.16</ele>
        <time>2018-07-02T10:11:16Z</time>
      </trkpt>
      <trkpt lat="44.12299" lon="6.93316">
        <ele>1651.68</ele>
        <time>2018-07-02T10:11:29Z</time>
      </trkpt>
      <trkpt lat="44.12287" lon="6.93322">
        <ele>1649.76</ele>
        <time>2018-07-02T10:11:45Z</time>
      </trkpt>
      <trkpt lat="44.12272" lon="6.93329">
        <ele>1645.43</ele>
        <time>2018-07-02T10:12:09Z</time>
      </trkpt>
      <trkpt lat="44.12249" lon="6.93345">
        <ele>1642.55</ele>
        <time>2018-07-02T10:12:42Z</time>
      </trkpt>
      <trkpt lat="44.12237" lon="6.93347">
        <ele>1640.63</ele>
        <time>2018-07-02T10:12:56Z</time>
      </trkpt>
      <trkpt lat="44.12225" lon="6.93349">
        <ele>1637.74</ele>
        <time>2018-07-02T10:13:10Z</time>
      </trkpt>
      <trkpt lat="44.12209" lon="6.93354">
        <ele>1632.46</ele>
        <time>2018-07-02T10:13:34Z</time>
      </trkpt>
      <trkpt lat="44.12193" lon="6.93363">
        <ele>1627.17</ele>
        <time>2018-07-02T10:13:59Z</time>
      </trkpt>
      <trkpt lat="44.12178" lon="6.93367">
        <ele>1624.28</ele>
        <time>2018-07-02T10:14:20Z</time>
      </trkpt>
      <trkpt lat="44.12178" lon="6.93359">
        <ele>1620.92</ele>
        <time>2018-07-02T10:14:37Z</time>
      </trkpt>
      <trkpt lat="44.12186" lon="6.93338">
        <ele>1617.07</ele>
        <time>2018-07-02T10:15:00Z</time>
      </trkpt>
      <trkpt lat="44.12191" lon="6.93322">
        <ele>1614.19</ele>
        <time>2018-07-02T10:15:16Z</time>
      </trkpt>
      <trkpt lat="44.12199" lon="6.93309">
        <ele>1611.79</ele>
        <time>2018-07-02T10:15:30Z</time>
      </trkpt>
      <trkpt lat="44.12195" lon="6.933">
        <ele>1606.98</ele>
        <time>2018-07-02T10:16:03Z</time>
      </trkpt>
      <trkpt lat="44.12183" lon="6.93287">
        <ele>1599.29</ele>
        <time>2018-07-02T10:16:49Z</time>
      </trkpt>
      <trkpt lat="44.12185" lon="6.93276">
        <ele>1595.93</ele>
        <time>2018-07-02T10:17:30Z</time>
      </trkpt>
      <trkpt lat="44.12181" lon="6.9327">
        <ele>1592.08</ele>
        <time>2018-07-02T10:18:09Z</time>
      </trkpt>
      <trkpt lat="44.12182" lon="6.93266">
        <ele>1589.68</ele>
        <time>2018-07-02T10:18:23Z</time>
      </trkpt>
      <trkpt lat="44.12168" lon="6.93263">
        <ele>1586.31</ele>
        <time>2018-07-02T10:18:43Z</time>
      </trkpt>
      <trkpt lat="44.12148" lon="6.93258">
        <ele>1580.54</ele>
        <time>2018-07-02T10:19:15Z</time>
      </trkpt>
      <trkpt lat="44.12137" lon="6.93261">
        <ele>1578.14</ele>
        <time>2018-07-02T10:19:32Z</time>
      </trkpt>
      <trkpt lat="44.12121" lon="6.93269">
        <ele>1574.3</ele>
        <time>2018-07-02T10:20:06Z</time>
      </trkpt>
      <trkpt lat="44.12101" lon="6.93276">
        <ele>1565.64</ele>
        <time>2018-07-02T10:21:03Z</time>
      </trkpt>
      <trkpt lat="44.12095" lon="6.93297">
        <ele>1563.72</ele>
        <time>2018-07-02T10:21:43Z</time>
      </trkpt>
      <trkpt lat="44.12089" lon="6.93337">
        <ele>1559.4</ele>
        <time>2018-07-02T10:22:20Z</time>
      </trkpt>
      <trkpt lat="44.12065" lon="6.93385">
        <ele>1550.74</ele>
        <time>2018-07-02T10:25:38Z</time>
      </trkpt>
      <trkpt lat="44.12057" lon="6.93386">
        <ele>1545.94</ele>
        <time>2018-07-02T10:26:04Z</time>
      </trkpt>
      <trkpt lat="44.12059" lon="6.93422">
        <ele>1539.69</ele>
        <time>2018-07-02T10:26:49Z</time>
      </trkpt>
      <trkpt lat="44.1204" lon="6.93458">
        <ele>1534.4</ele>
        <time>2018-07-02T10:29:32Z</time>
      </trkpt>
      <trkpt lat="44.12039" lon="6.93439">
        <ele>1531.52</ele>
        <time>2018-07-02T10:29:52Z</time>
      </trkpt>
      <trkpt lat="44.12038" lon="6.93423">
        <ele>1528.63</ele>
        <time>2018-07-02T10:30:08Z</time>
      </trkpt>
      <trkpt lat="44.12036" lon="6.93405">
        <ele>1525.27</ele>
        <time>2018-07-02T10:30:26Z</time>
      </trkpt>
      <trkpt lat="44.12024" lon="6.93387">
        <ele>1519.02</ele>
        <time>2018-07-02T10:31:01Z</time>
      </trkpt>
      <trkpt lat="44.12006" lon="6.93354">
        <ele>1512.29</ele>
        <time>2018-07-02T10:33:31Z</time>
      </trkpt>
      <trkpt lat="44.12005" lon="6.93352">
        <ele>1508.93</ele>
        <time>2018-07-02T10:34:41Z</time>
      </trkpt>
      <trkpt lat="44.11991" lon="6.93335">
        <ele>1503.16</ele>
        <time>2018-07-02T10:35:24Z</time>
      </trkpt>
      <trkpt lat="44.11983" lon="6.93333">
        <ele>1497.39</ele>
        <time>2018-07-02T10:36:30Z</time>
      </trkpt>
      <trkpt lat="44.11961" lon="6.93331">
        <ele>1486.34</ele>
        <time>2018-07-02T10:37:30Z</time>
      </trkpt>
      <trkpt lat="44.11956" lon="6.93307">
        <ele>1482.49</ele>
        <time>2018-07-02T10:37:55Z</time>
      </trkpt>
      <trkpt lat="44.11956" lon="6.93289">
        <ele>1477.68</ele>
        <time>2018-07-02T10:38:19Z</time>
      </trkpt>
      <trkpt lat="44.11958" lon="6.93262">
        <ele>1468.55</ele>
        <time>2018-07-02T10:44:15Z</time>
      </trkpt>
      <trkpt lat="44.11967" lon="6.9325">
        <ele>1465.19</ele>
        <time>2018-07-02T10:44:32Z</time>
      </trkpt>
      <trkpt lat="44.11947" lon="6.93263">
        <ele>1459.9</ele>
        <time>2018-07-02T10:45:01Z</time>
      </trkpt>
      <trkpt lat="44.11932" lon="6.93282">
        <ele>1458.46</ele>
        <time>2018-07-02T10:45:24Z</time>
      </trkpt>
      <trkpt lat="44.11888" lon="6.93321">
        <ele>1447.88</ele>
        <time>2018-07-02T10:46:27Z</time>
      </trkpt>
      <trkpt lat="44.11877" lon="6.93316">
        <ele>1443.08</ele>
        <time>2018-07-02T10:48:17Z</time>
      </trkpt>
      <trkpt lat="44.11868" lon="6.9331">
        <ele>1436.83</ele>
        <time>2018-07-02T11:10:17Z</time>
      </trkpt>
      <trkpt lat="44.11877" lon="6.93335">
        <ele>1437.31</ele>
        <time>2018-07-02T11:13:57Z</time>
      </trkpt>
      <trkpt lat="44.11872" lon="6.93324">
        <ele>1432.5</ele>
        <time>2018-07-02T11:22:01Z</time>
      </trkpt>
      <trkpt lat="44.11868" lon="6.93395">
        <ele>1409.91</ele>
        <time>2018-07-02T11:25:06Z</time>
      </trkpt>
      <trkpt lat="44.11858" lon="6.93381">
        <ele>1407.03</ele>
        <time>2018-07-02T11:25:37Z</time>
      </trkpt>
      <trkpt lat="44.11849" lon="6.93378">
        <ele>1404.14</ele>
        <time>2018-07-02T11:25:51Z</time>
      </trkpt>
      <trkpt lat="44.11841" lon="6.93368">
        <ele>1402.22</ele>
        <time>2018-07-02T11:26:03Z</time>
      </trkpt>
      <trkpt lat="44.11823" lon="6.9321">
        <ele>1390.68</ele>
        <time>2018-07-02T11:28:59Z</time>
      </trkpt>
      <trkpt lat="44.11833" lon="6.93198">
        <ele>1387.32</ele>
        <time>2018-07-02T11:29:16Z</time>
      </trkpt>
      <trkpt lat="44.11841" lon="6.93186">
        <ele>1385.88</ele>
        <time>2018-07-02T11:29:28Z</time>
      </trkpt>
      <trkpt lat="44.11843" lon="6.93172">
        <ele>1383.96</ele>
        <time>2018-07-02T11:29:41Z</time>
      </trkpt>
      <trkpt lat="44.11843" lon="6.93159">
        <ele>1382.51</ele>
        <time>2018-07-02T11:29:54Z</time>
      </trkpt>
      <trkpt lat="44.11845" lon="6.93145">
        <ele>1380.59</ele>
        <time>2018-07-02T11:30:23Z</time>
      </trkpt>
      <trkpt lat="44.11849" lon="6.93132">
        <ele>1382.03</ele>
        <time>2018-07-02T11:30:36Z</time>
      </trkpt>
      <trkpt lat="44.11846" lon="6.93133">
        <ele>1382.03</ele>
        <time>2018-07-02T11:31:06Z</time>
      </trkpt>
      <trkpt lat="44.11809" lon="6.93142">
        <ele>1363.77</ele>
        <time>2018-07-02T11:34:48Z</time>
      </trkpt>
      <trkpt lat="44.11801" lon="6.93158">
        <ele>1362.33</ele>
        <time>2018-07-02T11:35:03Z</time>
      </trkpt>
      <trkpt lat="44.11793" lon="6.93168">
        <ele>1361.36</ele>
        <time>2018-07-02T11:35:15Z</time>
      </trkpt>
      <trkpt lat="44.11785" lon="6.93177">
        <ele>1359.92</ele>
        <time>2018-07-02T11:35:26Z</time>
      </trkpt>
      <trkpt lat="44.11778" lon="6.93187">
        <ele>1358.96</ele>
        <time>2018-07-02T11:35:39Z</time>
      </trkpt>
      <trkpt lat="44.11773" lon="6.93207">
        <ele>1357.04</ele>
        <time>2018-07-02T11:35:56Z</time>
      </trkpt>
      <trkpt lat="44.11773" lon="6.9322">
        <ele>1356.56</ele>
        <time>2018-07-02T11:36:09Z</time>
      </trkpt>
      <trkpt lat="44.11776" lon="6.93268">
        <ele>1352.23</ele>
        <time>2018-07-02T11:36:54Z</time>
      </trkpt>
      <trkpt lat="44.11766" lon="6.93272">
        <ele>1351.75</ele>
        <time>2018-07-02T11:37:06Z</time>
      </trkpt>
      <trkpt lat="44.11764" lon="6.93251">
        <ele>1350.79</ele>
        <time>2018-07-02T11:38:11Z</time>
      </trkpt>
      <trkpt lat="44.11763" lon="6.93233">
        <ele>1350.79</ele>
        <time>2018-07-02T11:38:21Z</time>
      </trkpt>
      <trkpt lat="44.11753" lon="6.932">
        <ele>1350.79</ele>
        <time>2018-07-02T11:38:45Z</time>
      </trkpt>
      <trkpt lat="44.11745" lon="6.93188">
        <ele>1350.79</ele>
        <time>2018-07-02T11:38:55Z</time>
      </trkpt>
      <trkpt lat="44.11737" lon="6.93181">
        <ele>1349.35</ele>
        <time>2018-07-02T11:39:05Z</time>
      </trkpt>
      <trkpt lat="44.1173" lon="6.93172">
        <ele>1348.39</ele>
        <time>2018-07-02T11:39:15Z</time>
      </trkpt>
      <trkpt lat="44.11704" lon="6.93145">
        <ele>1344.06</ele>
        <time>2018-07-02T11:39:57Z</time>
      </trkpt>
      <trkpt lat="44.11661" lon="6.9309">
        <ele>1337.81</ele>
        <time>2018-07-02T11:41:30Z</time>
      </trkpt>
      <trkpt lat="44.11627" lon="6.93077">
        <ele>1332.04</ele>
        <time>2018-07-02T11:42:45Z</time>
      </trkpt>
      <trkpt lat="44.11556" lon="6.92997">
        <ele>1321.95</ele>
        <time>2018-07-02T11:47:37Z</time>
      </trkpt>
      <trkpt lat="44.11536" lon="6.92958">
        <ele>1319.55</ele>
        <time>2018-07-02T11:48:16Z</time>
      </trkpt>
      <trkpt lat="44.11529" lon="6.92948">
        <ele>1319.07</ele>
        <time>2018-07-02T11:48:27Z</time>
      </trkpt>
      <trkpt lat="44.11521" lon="6.9293">
        <ele>1318.1</ele>
        <time>2018-07-02T11:48:45Z</time>
      </trkpt>
      <trkpt lat="44.11516" lon="6.92912">
        <ele>1316.66</ele>
        <time>2018-07-02T11:48:59Z</time>
      </trkpt>
      <trkpt lat="44.11509" lon="6.92894">
        <ele>1316.18</ele>
        <time>2018-07-02T11:49:12Z</time>
      </trkpt>
      <trkpt lat="44.11502" lon="6.92882">
        <ele>1314.74</ele>
        <time>2018-07-02T11:49:24Z</time>
      </trkpt>
      <trkpt lat="44.11492" lon="6.92872">
        <ele>1313.78</ele>
        <time>2018-07-02T11:49:36Z</time>
      </trkpt>
      <trkpt lat="44.11465" lon="6.92865">
        <ele>1311.86</ele>
        <time>2018-07-02T11:50:23Z</time>
      </trkpt>
      <trkpt lat="44.11459" lon="6.9285">
        <ele>1310.41</ele>
        <time>2018-07-02T11:50:35Z</time>
      </trkpt>
      <trkpt lat="44.11451" lon="6.92839">
        <ele>1309.45</ele>
        <time>2018-07-02T11:50:47Z</time>
      </trkpt>
      <trkpt lat="44.11444" lon="6.92827">
        <ele>1308.01</ele>
        <time>2018-07-02T11:51:00Z</time>
      </trkpt>
      <trkpt lat="44.11436" lon="6.92814">
        <ele>1307.05</ele>
        <time>2018-07-02T11:51:12Z</time>
      </trkpt>
      <trkpt lat="44.11428" lon="6.92801">
        <ele>1305.13</ele>
        <time>2018-07-02T11:51:24Z</time>
      </trkpt>
      <trkpt lat="44.1142" lon="6.92788">
        <ele>1304.17</ele>
        <time>2018-07-02T11:51:36Z</time>
      </trkpt>
      <trkpt lat="44.11413" lon="6.92773">
        <ele>1303.69</ele>
        <time>2018-07-02T11:51:49Z</time>
      </trkpt>
      <trkpt lat="44.11405" lon="6.9276">
        <ele>1302.24</ele>
        <time>2018-07-02T11:52:01Z</time>
      </trkpt>
      <trkpt lat="44.11399" lon="6.92739">
        <ele>1301.28</ele>
        <time>2018-07-02T11:52:17Z</time>
      </trkpt>
      <trkpt lat="44.11393" lon="6.92722">
        <ele>1300.32</ele>
        <time>2018-07-02T11:52:32Z</time>
      </trkpt>
      <trkpt lat="44.11384" lon="6.92711">
        <ele>1297.92</ele>
        <time>2018-07-02T11:53:04Z</time>
      </trkpt>
      <trkpt lat="44.11375" lon="6.92696">
        <ele>1295.51</ele>
        <time>2018-07-02T11:54:23Z</time>
      </trkpt>
      <trkpt lat="44.11367" lon="6.92686">
        <ele>1296.96</ele>
        <time>2018-07-02T11:54:39Z</time>
      </trkpt>
      <trkpt lat="44.11365" lon="6.92671">
        <ele>1295.51</ele>
        <time>2018-07-02T11:54:49Z</time>
      </trkpt>
      <trkpt lat="44.1137" lon="6.92659">
        <ele>1294.07</ele>
        <time>2018-07-02T11:55:02Z</time>
      </trkpt>
      <trkpt lat="44.11377" lon="6.92647">
        <ele>1293.59</ele>
        <time>2018-07-02T11:55:16Z</time>
      </trkpt>
      <trkpt lat="44.11381" lon="6.92632">
        <ele>1292.15</ele>
        <time>2018-07-02T11:55:28Z</time>
      </trkpt>
      <trkpt lat="44.1139" lon="6.9262">
        <ele>1291.19</ele>
        <time>2018-07-02T11:55:42Z</time>
      </trkpt>
      <trkpt lat="44.11396" lon="6.92608">
        <ele>1290.23</ele>
        <time>2018-07-02T11:55:54Z</time>
      </trkpt>
      <trkpt lat="44.11396" lon="6.92594">
        <ele>1289.27</ele>
        <time>2018-07-02T11:56:09Z</time>
      </trkpt>
      <trkpt lat="44.11389" lon="6.9257">
        <ele>1287.82</ele>
        <time>2018-07-02T11:56:52Z</time>
      </trkpt>
      <trkpt lat="44.11387" lon="6.92557">
        <ele>1287.34</ele>
        <time>2018-07-02T11:57:02Z</time>
      </trkpt>
      <trkpt lat="44.11386" lon="6.92545">
        <ele>1285.9</ele>
        <time>2018-07-02T11:57:12Z</time>
      </trkpt>
      <trkpt lat="44.11386" lon="6.9253">
        <ele>1284.46</ele>
        <time>2018-07-02T11:57:23Z</time>
      </trkpt>
      <trkpt lat="44.11387" lon="6.92513">
        <ele>1283.5</ele>
        <time>2018-07-02T11:57:33Z</time>
      </trkpt>
      <trkpt lat="44.1139" lon="6.92499">
        <ele>1282.06</ele>
        <time>2018-07-02T11:57:44Z</time>
      </trkpt>
      <trkpt lat="44.11392" lon="6.92487">
        <ele>1281.57</ele>
        <time>2018-07-02T11:57:56Z</time>
      </trkpt>
      <trkpt lat="44.11395" lon="6.92475">
        <ele>1281.09</ele>
        <time>2018-07-02T11:58:21Z</time>
      </trkpt>
      <trkpt lat="44.114" lon="6.92463">
        <ele>1280.13</ele>
        <time>2018-07-02T11:58:34Z</time>
      </trkpt>
      <trkpt lat="44.11407" lon="6.92447">
        <ele>1278.69</ele>
        <time>2018-07-02T11:59:41Z</time>
      </trkpt>
      <trkpt lat="44.11405" lon="6.92431">
        <ele>1277.25</ele>
        <time>2018-07-02T12:00:04Z</time>
      </trkpt>
      <trkpt lat="44.11404" lon="6.92415">
        <ele>1275.81</ele>
        <time>2018-07-02T12:00:18Z</time>
      </trkpt>
      <trkpt lat="44.11404" lon="6.924">
        <ele>1274.36</ele>
        <time>2018-07-02T12:00:30Z</time>
      </trkpt>
      <trkpt lat="44.1141" lon="6.92385">
        <ele>1273.88</ele>
        <time>2018-07-02T12:00:49Z</time>
      </trkpt>
      <trkpt lat="44.11419" lon="6.92376">
        <ele>1272.44</ele>
        <time>2018-07-02T12:01:02Z</time>
      </trkpt>
      <trkpt lat="44.11428" lon="6.92366">
        <ele>1271</ele>
        <time>2018-07-02T12:01:25Z</time>
      </trkpt>
      <trkpt lat="44.11436" lon="6.92354">
        <ele>1270.04</ele>
        <time>2018-07-02T12:01:39Z</time>
      </trkpt>
      <trkpt lat="44.11445" lon="6.92339">
        <ele>1269.08</ele>
        <time>2018-07-02T12:02:07Z</time>
      </trkpt>
      <trkpt lat="44.11455" lon="6.92324">
        <ele>1267.16</ele>
        <time>2018-07-02T12:02:29Z</time>
      </trkpt>
      <trkpt lat="44.11467" lon="6.9231">
        <ele>1265.71</ele>
        <time>2018-07-02T12:02:48Z</time>
      </trkpt>
      <trkpt lat="44.11472" lon="6.92299">
        <ele>1264.75</ele>
        <time>2018-07-02T12:02:59Z</time>
      </trkpt>
      <trkpt lat="44.11477" lon="6.92285">
        <ele>1263.31</ele>
        <time>2018-07-02T12:03:12Z</time>
      </trkpt>
      <trkpt lat="44.11483" lon="6.92271">
        <ele>1262.35</ele>
        <time>2018-07-02T12:03:23Z</time>
      </trkpt>
      <trkpt lat="44.11485" lon="6.9225">
        <ele>1260.43</ele>
        <time>2018-07-02T12:04:08Z</time>
      </trkpt>
      <trkpt lat="44.11495" lon="6.92241">
        <ele>1259.94</ele>
        <time>2018-07-02T12:04:20Z</time>
      </trkpt>
      <trkpt lat="44.11498" lon="6.92225">
        <ele>1258.98</ele>
        <time>2018-07-02T12:04:36Z</time>
      </trkpt>
      <trkpt lat="44.11502" lon="6.92211">
        <ele>1258.02</ele>
        <time>2018-07-02T12:04:47Z</time>
      </trkpt>
      <trkpt lat="44.11505" lon="6.92197">
        <ele>1256.58</ele>
        <time>2018-07-02T12:04:56Z</time>
      </trkpt>
      <trkpt lat="44.11505" lon="6.92183">
        <ele>1256.58</ele>
        <time>2018-07-02T12:05:05Z</time>
      </trkpt>
      <trkpt lat="44.11502" lon="6.92167">
        <ele>1255.62</ele>
        <time>2018-07-02T12:05:15Z</time>
      </trkpt>
      <trkpt lat="44.11503" lon="6.92152">
        <ele>1255.14</ele>
        <time>2018-07-02T12:05:27Z</time>
      </trkpt>
      <trkpt lat="44.11502" lon="6.92139">
        <ele>1253.7</ele>
        <time>2018-07-02T12:05:38Z</time>
      </trkpt>
      <trkpt lat="44.11502" lon="6.92126">
        <ele>1253.22</ele>
        <time>2018-07-02T12:05:48Z</time>
      </trkpt>
      <trkpt lat="44.11504" lon="6.92108">
        <ele>1251.77</ele>
        <time>2018-07-02T12:05:57Z</time>
      </trkpt>
      <trkpt lat="44.11505" lon="6.92091">
        <ele>1251.29</ele>
        <time>2018-07-02T12:06:07Z</time>
      </trkpt>
      <trkpt lat="44.11506" lon="6.92075">
        <ele>1250.81</ele>
        <time>2018-07-02T12:06:17Z</time>
      </trkpt>
      <trkpt lat="44.11508" lon="6.92064">
        <ele>1250.33</ele>
        <time>2018-07-02T12:06:40Z</time>
      </trkpt>
      <trkpt lat="44.11511" lon="6.92051">
        <ele>1249.85</ele>
        <time>2018-07-02T12:06:53Z</time>
      </trkpt>
      <trkpt lat="44.11517" lon="6.9203">
        <ele>1247.93</ele>
        <time>2018-07-02T12:07:09Z</time>
      </trkpt>
      <trkpt lat="44.11518" lon="6.92012">
        <ele>1247.45</ele>
        <time>2018-07-02T12:07:19Z</time>
      </trkpt>
      <trkpt lat="44.11521" lon="6.91991">
        <ele>1246.01</ele>
        <time>2018-07-02T12:07:34Z</time>
      </trkpt>
      <trkpt lat="44.11523" lon="6.91978">
        <ele>1245.04</ele>
        <time>2018-07-02T12:07:44Z</time>
      </trkpt>
      <trkpt lat="44.11524" lon="6.91964">
        <ele>1245.04</ele>
        <time>2018-07-02T12:07:53Z</time>
      </trkpt>
      <trkpt lat="44.11525" lon="6.9195">
        <ele>1243.6</ele>
        <time>2018-07-02T12:08:02Z</time>
      </trkpt>
      <trkpt lat="44.11525" lon="6.91934">
        <ele>1241.68</ele>
        <time>2018-07-02T12:08:11Z</time>
      </trkpt>
      <trkpt lat="44.11526" lon="6.91921">
        <ele>1243.12</ele>
        <time>2018-07-02T12:08:20Z</time>
      </trkpt>
      <trkpt lat="44.11528" lon="6.91907">
        <ele>1242.16</ele>
        <time>2018-07-02T12:08:29Z</time>
      </trkpt>
      <trkpt lat="44.11531" lon="6.91895">
        <ele>1240.72</ele>
        <time>2018-07-02T12:08:40Z</time>
      </trkpt>
      <trkpt lat="44.11533" lon="6.91879">
        <ele>1239.76</ele>
        <time>2018-07-02T12:08:50Z</time>
      </trkpt>
      <trkpt lat="44.11535" lon="6.91862">
        <ele>1238.8</ele>
        <time>2018-07-02T12:09:00Z</time>
      </trkpt>
      <trkpt lat="44.11538" lon="6.91849">
        <ele>1238.32</ele>
        <time>2018-07-02T12:09:09Z</time>
      </trkpt>
      <trkpt lat="44.11542" lon="6.91835">
        <ele>1237.35</ele>
        <time>2018-07-02T12:09:18Z</time>
      </trkpt>
      <trkpt lat="44.11548" lon="6.91823">
        <ele>1235.91</ele>
        <time>2018-07-02T12:09:28Z</time>
      </trkpt>
      <trkpt lat="44.11554" lon="6.91812">
        <ele>1235.43</ele>
        <time>2018-07-02T12:09:38Z</time>
      </trkpt>
      <trkpt lat="44.11561" lon="6.918">
        <ele>1234.47</ele>
        <time>2018-07-02T12:09:48Z</time>
      </trkpt>
      <trkpt lat="44.11567" lon="6.91788">
        <ele>1233.03</ele>
        <time>2018-07-02T12:09:58Z</time>
      </trkpt>
      <trkpt lat="44.1157" lon="6.91773">
        <ele>1232.07</ele>
        <time>2018-07-02T12:10:08Z</time>
      </trkpt>
      <trkpt lat="44.11571" lon="6.91753">
        <ele>1231.59</ele>
        <time>2018-07-02T12:10:18Z</time>
      </trkpt>
      <trkpt lat="44.11572" lon="6.91739">
        <ele>1231.11</ele>
        <time>2018-07-02T12:10:28Z</time>
      </trkpt>
      <trkpt lat="44.11571" lon="6.91724">
        <ele>1230.14</ele>
        <time>2018-07-02T12:10:37Z</time>
      </trkpt>
      <trkpt lat="44.1157" lon="6.91706">
        <ele>1229.18</ele>
        <time>2018-07-02T12:10:46Z</time>
      </trkpt>
      <trkpt lat="44.11571" lon="6.91692">
        <ele>1228.22</ele>
        <time>2018-07-02T12:10:55Z</time>
      </trkpt>
      <trkpt lat="44.11573" lon="6.91676">
        <ele>1226.78</ele>
        <time>2018-07-02T12:11:04Z</time>
      </trkpt>
      <trkpt lat="44.11575" lon="6.91662">
        <ele>1225.82</ele>
        <time>2018-07-02T12:11:14Z</time>
      </trkpt>
      <trkpt lat="44.11583" lon="6.91648">
        <ele>1225.34</ele>
        <time>2018-07-02T12:11:24Z</time>
      </trkpt>
      <trkpt lat="44.11594" lon="6.91644">
        <ele>1224.38</ele>
        <time>2018-07-02T12:11:34Z</time>
      </trkpt>
      <trkpt lat="44.11605" lon="6.91642">
        <ele>1223.42</ele>
        <time>2018-07-02T12:11:45Z</time>
      </trkpt>
      <trkpt lat="44.11614" lon="6.91634">
        <ele>1222.45</ele>
        <time>2018-07-02T12:11:54Z</time>
      </trkpt>
      <trkpt lat="44.11622" lon="6.91622">
        <ele>1221.49</ele>
        <time>2018-07-02T12:12:03Z</time>
      </trkpt>
      <trkpt lat="44.1163" lon="6.91613">
        <ele>1221.01</ele>
        <time>2018-07-02T12:12:12Z</time>
      </trkpt>
      <trkpt lat="44.11637" lon="6.91601">
        <ele>1219.57</ele>
        <time>2018-07-02T12:12:22Z</time>
      </trkpt>
      <trkpt lat="44.11644" lon="6.91589">
        <ele>1218.13</ele>
        <time>2018-07-02T12:12:32Z</time>
      </trkpt>
      <trkpt lat="44.11649" lon="6.91577">
        <ele>1217.65</ele>
        <time>2018-07-02T12:12:42Z</time>
      </trkpt>
      <trkpt lat="44.11655" lon="6.91566">
        <ele>1217.17</ele>
        <time>2018-07-02T12:12:52Z</time>
      </trkpt>
      <trkpt lat="44.11665" lon="6.91554">
        <ele>1216.21</ele>
        <time>2018-07-02T12:13:16Z</time>
      </trkpt>
      <trkpt lat="44.11673" lon="6.91544">
        <ele>1215.72</ele>
        <time>2018-07-02T12:13:24Z</time>
      </trkpt>
      <trkpt lat="44.11681" lon="6.91535">
        <ele>1214.76</ele>
        <time>2018-07-02T12:13:34Z</time>
      </trkpt>
      <trkpt lat="44.11695" lon="6.91512">
        <ele>1211.88</ele>
        <time>2018-07-02T12:14:39Z</time>
      </trkpt>
      <trkpt lat="44.11701" lon="6.91502">
        <ele>1211.4</ele>
        <time>2018-07-02T12:14:49Z</time>
      </trkpt>
      <trkpt lat="44.11705" lon="6.9149">
        <ele>1210.92</ele>
        <time>2018-07-02T12:14:59Z</time>
      </trkpt>
      <trkpt lat="44.11707" lon="6.91475">
        <ele>1209.96</ele>
        <time>2018-07-02T12:15:09Z</time>
      </trkpt>
      <trkpt lat="44.11707" lon="6.91458">
        <ele>1209.48</ele>
        <time>2018-07-02T12:15:18Z</time>
      </trkpt>
      <trkpt lat="44.11705" lon="6.91444">
        <ele>1208.51</ele>
        <time>2018-07-02T12:15:26Z</time>
      </trkpt>
      <trkpt lat="44.11702" lon="6.91431">
        <ele>1208.03</ele>
        <time>2018-07-02T12:15:34Z</time>
      </trkpt>
      <trkpt lat="44.11698" lon="6.91414">
        <ele>1207.07</ele>
        <time>2018-07-02T12:15:44Z</time>
      </trkpt>
      <trkpt lat="44.11695" lon="6.91398">
        <ele>1206.59</ele>
        <time>2018-07-02T12:16:04Z</time>
      </trkpt>
      <trkpt lat="44.11695" lon="6.91383">
        <ele>1206.11</ele>
        <time>2018-07-02T12:16:14Z</time>
      </trkpt>
      <trkpt lat="44.11697" lon="6.91367">
        <ele>1205.63</ele>
        <time>2018-07-02T12:16:25Z</time>
      </trkpt>
      <trkpt lat="44.11699" lon="6.91354">
        <ele>1204.67</ele>
        <time>2018-07-02T12:16:35Z</time>
      </trkpt>
      <trkpt lat="44.11701" lon="6.91337">
        <ele>1203.71</ele>
        <time>2018-07-02T12:16:46Z</time>
      </trkpt>
      <trkpt lat="44.117" lon="6.91321">
        <ele>1202.75</ele>
        <time>2018-07-02T12:16:57Z</time>
      </trkpt>
      <trkpt lat="44.11697" lon="6.91304">
        <ele>1201.79</ele>
        <time>2018-07-02T12:17:30Z</time>
      </trkpt>
      <trkpt lat="44.11698" lon="6.91292">
        <ele>1200.82</ele>
        <time>2018-07-02T12:17:39Z</time>
      </trkpt>
      <trkpt lat="44.11701" lon="6.91274">
        <ele>1199.86</ele>
        <time>2018-07-02T12:17:48Z</time>
      </trkpt>
      <trkpt lat="44.11702" lon="6.91258">
        <ele>1198.9</ele>
        <time>2018-07-02T12:17:57Z</time>
      </trkpt>
      <trkpt lat="44.11704" lon="6.91243">
        <ele>1198.9</ele>
        <time>2018-07-02T12:18:06Z</time>
      </trkpt>
      <trkpt lat="44.11705" lon="6.91227">
        <ele>1197.46</ele>
        <time>2018-07-02T12:18:17Z</time>
      </trkpt>
      <trkpt lat="44.11707" lon="6.91213">
        <ele>1196.5</ele>
        <time>2018-07-02T12:18:29Z</time>
      </trkpt>
      <trkpt lat="44.11711" lon="6.91199">
        <ele>1196.5</ele>
        <time>2018-07-02T12:18:41Z</time>
      </trkpt>
      <trkpt lat="44.11714" lon="6.91183">
        <ele>1195.06</ele>
        <time>2018-07-02T12:18:52Z</time>
      </trkpt>
      <trkpt lat="44.11718" lon="6.91169">
        <ele>1194.58</ele>
        <time>2018-07-02T12:19:02Z</time>
      </trkpt>
      <trkpt lat="44.11722" lon="6.91156">
        <ele>1193.13</ele>
        <time>2018-07-02T12:19:12Z</time>
      </trkpt>
      <trkpt lat="44.11726" lon="6.91143">
        <ele>1191.69</ele>
        <time>2018-07-02T12:19:23Z</time>
      </trkpt>
      <trkpt lat="44.11723" lon="6.91126">
        <ele>1190.73</ele>
        <time>2018-07-02T12:19:38Z</time>
      </trkpt>
      <trkpt lat="44.11723" lon="6.91102">
        <ele>1190.25</ele>
        <time>2018-07-02T12:20:14Z</time>
      </trkpt>
      <trkpt lat="44.11714" lon="6.91092">
        <ele>1188.81</ele>
        <time>2018-07-02T12:20:26Z</time>
      </trkpt>
      <trkpt lat="44.11707" lon="6.91081">
        <ele>1188.81</ele>
        <time>2018-07-02T12:20:37Z</time>
      </trkpt>
      <trkpt lat="44.11698" lon="6.91062">
        <ele>1189.29</ele>
        <time>2018-07-02T12:21:43Z</time>
      </trkpt>
      <trkpt lat="44.11695" lon="6.91047">
        <ele>1187.37</ele>
        <time>2018-07-02T12:21:57Z</time>
      </trkpt>
      <trkpt lat="44.11701" lon="6.91033">
        <ele>1186.88</ele>
        <time>2018-07-02T12:22:11Z</time>
      </trkpt>
      <trkpt lat="44.11708" lon="6.91023">
        <ele>1186.4</ele>
        <time>2018-07-02T12:22:22Z</time>
      </trkpt>
      <trkpt lat="44.11723" lon="6.91003">
        <ele>1184.96</ele>
        <time>2018-07-02T12:23:05Z</time>
      </trkpt>
      <trkpt lat="44.11727" lon="6.90986">
        <ele>1184</ele>
        <time>2018-07-02T12:23:19Z</time>
      </trkpt>
      <trkpt lat="44.11731" lon="6.90971">
        <ele>1183.04</ele>
        <time>2018-07-02T12:23:31Z</time>
      </trkpt>
      <trkpt lat="44.11734" lon="6.90957">
        <ele>1183.04</ele>
        <time>2018-07-02T12:23:42Z</time>
      </trkpt>
      <trkpt lat="44.1174" lon="6.90935">
        <ele>1182.08</ele>
        <time>2018-07-02T12:24:01Z</time>
      </trkpt>
      <trkpt lat="44.11743" lon="6.90917">
        <ele>1181.12</ele>
        <time>2018-07-02T12:24:13Z</time>
      </trkpt>
      <trkpt lat="44.11753" lon="6.90887">
        <ele>1180.64</ele>
        <time>2018-07-02T12:24:33Z</time>
      </trkpt>
      <trkpt lat="44.11755" lon="6.90872">
        <ele>1179.67</ele>
        <time>2018-07-02T12:24:43Z</time>
      </trkpt>
      <trkpt lat="44.11751" lon="6.90848">
        <ele>1179.67</ele>
        <time>2018-07-02T12:25:03Z</time>
      </trkpt>
      <trkpt lat="44.11746" lon="6.9082">
        <ele>1178.23</ele>
        <time>2018-07-02T12:25:28Z</time>
      </trkpt>
      <trkpt lat="44.11744" lon="6.90797">
        <ele>1177.27</ele>
        <time>2018-07-02T12:25:46Z</time>
      </trkpt>
      <trkpt lat="44.1174" lon="6.90779">
        <ele>1176.79</ele>
        <time>2018-07-02T12:25:56Z</time>
      </trkpt>
      <trkpt lat="44.1174" lon="6.90763">
        <ele>1175.83</ele>
        <time>2018-07-02T12:26:08Z</time>
      </trkpt>
      <trkpt lat="44.11735" lon="6.9075">
        <ele>1175.35</ele>
        <time>2018-07-02T12:26:19Z</time>
      </trkpt>
      <trkpt lat="44.11724" lon="6.90728">
        <ele>1175.35</ele>
        <time>2018-07-02T12:26:37Z</time>
      </trkpt>
      <trkpt lat="44.11732" lon="6.9073">
        <ele>1173.91</ele>
        <time>2018-07-02T12:27:48Z</time>
      </trkpt>
      <trkpt lat="44.11721" lon="6.90731">
        <ele>1175.35</ele>
        <time>2018-07-02T12:29:27Z</time>
      </trkpt>
    </trkseg>
  </trk>
</gpx>